Time;durP1;ratioP1;P1;durP2;ratioP2;P2;SDS_P1;SDS_P2;PMS_P1;PMS_P2;Temp;Humidity;BMP_temperature;BMP_pressure;BME280_temperature;BME280_humidity;BME280_pressure;Samples;Min_cycle;Max_cycle;Signal;HPM_P1;HPM_P2
2022/09/18 00:00:56;;;;;;;2.50;1.20;;;;;;;;;;5089753;28;20456;-74
2022/09/18 00:03:23;;;;;;;4.47;1.90;;;;;;;;;;5074462;28;20425;-74
2022/09/18 00:05:49;;;;;;;4.33;1.93;;;;;;;;;;5068019;28;20429;-74
2022/09/18 00:08:16;;;;;;;2.20;1.23;;;;;;;;;;5066391;28;20812;-75
2022/09/18 00:10:44;;;;;;;1.30;1.20;;;;;;;;;;5094321;28;20916;-74
2022/09/18 00:13:11;;;;;;;2.57;1.33;;;;;;;;;;5049149;28;20444;-75
2022/09/18 00:15:37;;;;;;;3.37;1.40;;;;;;;;;;5092855;28;20466;-74
2022/09/18 00:18:04;;;;;;;4.73;1.33;;;;;;;;;;5079205;28;20421;-75
2022/09/18 00:20:35;;;;;;;2.20;2.00;;;;;;;;;;5072387;28;20830;-74
2022/09/18 00:23:02;;;;;;;6.43;2.00;;;;;;;;;;5075661;28;20417;-74
2022/09/18 00:25:30;;;;;;;2.87;1.43;;;;;;;;;;5072515;28;21011;-74
2022/09/18 00:27:57;;;;;;;3.07;1.40;;;;;;;;;;5072506;28;20443;-74
2022/09/18 00:30:23;;;;;;;2.40;1.30;;;;;;;;;;5072498;28;20975;-74
2022/09/18 00:32:50;;;;;;;2.57;1.50;;;;;;;;;;5055916;28;20971;-74
2022/09/18 00:35:17;;;;;;;3.60;1.90;;;;;;;;;;5073945;28;20956;-74
2022/09/18 00:37:43;;;;;;;5.43;2.60;;;;;;;;;;5088099;28;20459;-74
2022/09/18 00:40:10;;;;;;;2.10;1.67;;;;;;;;;;5075712;28;20424;-74
2022/09/18 00:42:36;;;;;;;7.57;1.70;;;;;;;;;;5076504;28;20440;-74
2022/09/18 00:45:03;;;;;;;2.77;1.67;;;;;;;;;;5081678;28;20928;-74
2022/09/18 00:47:44;;;;;;;4.03;1.70;;;;;;;;;;5092319;28;20435;-74
2022/09/18 00:50:19;;;;;;;3.63;1.70;;;;;;;;;;5081714;28;20435;-74
2022/09/18 00:52:47;;;;;;;2.70;1.33;;;;;;;;;;5094505;28;20521;-75
2022/09/18 00:55:14;;;;;;;9.10;2.37;;;;;;;;;;5058768;28;20461;-74
2022/09/18 00:57:44;;;;;;;9.10;1.40;;;;;;;;;;5065302;28;20563;-74
2022/09/18 01:00:11;;;;;;;10.23;1.40;;;;;;;;;;5049619;28;20967;-75
2022/09/18 01:02:39;;;;;;;4.50;1.60;;;;;;;;;;5084691;28;20459;-74
2022/09/18 01:05:06;;;;;;;1.17;1.07;;;;;;;;;;5073181;28;20432;-75
2022/09/18 01:07:56;;;;;;;2.70;1.27;;;;;;;;;;5055148;28;20429;-74
2022/09/18 01:10:23;;;;;;;5.60;1.57;;;;;;;;;;5071882;28;20424;-74
2022/09/18 01:12:55;;;;;;;3.50;1.70;;;;;;;;;;5081804;28;20461;-74
2022/09/18 01:15:40;;;;;;;6.47;1.83;;;;;;;;;;5057167;28;20464;-75
2022/09/18 01:18:29;;;;;;;27.33;2.33;;;;;;;;;;5071388;28;20432;-74
2022/09/18 01:21:13;;;;;;;6.30;1.93;;;;;;;;;;5061118;28;20500;-74
2022/09/18 01:23:48;;;;;;;3.40;2.30;;;;;;;;;;5072616;28;20416;-74
2022/09/18 01:26:33;;;;;;;3.30;2.13;;;;;;;;;;5054700;28;20439;-75
2022/09/18 01:29:06;;;;;;;4.80;1.90;;;;;;;;;;5071687;28;20829;-75
2022/09/18 01:31:37;;;;;;;2.33;1.70;;;;;;;;;;5074561;28;20459;-74
2022/09/18 01:34:09;;;;;;;2.40;1.50;;;;;;;;;;5060340;28;20465;-75
2022/09/18 01:36:38;;;;;;;4.20;2.00;;;;;;;;;;5051613;28;20438;-74
2022/09/18 01:39:19;;;;;;;2.83;2.20;;;;;;;;;;5054378;28;20433;-74
2022/09/18 01:41:50;;;;;;;4.80;1.90;;;;;;;;;;5083703;28;20547;-74
2022/09/18 01:44:20;;;;;;;3.33;1.80;;;;;;;;;;5074407;28;20469;-75
2022/09/18 01:46:48;;;;;;;5.67;2.40;;;;;;;;;;5087741;28;20526;-74
2022/09/18 01:49:19;;;;;;;4.10;2.60;;;;;;;;;;5073197;28;20646;-75
2022/09/18 01:51:48;;;;;;;4.90;1.97;;;;;;;;;;5061304;28;20484;-75
2022/09/18 01:54:16;;;;;;;5.53;2.00;;;;;;;;;;5070622;28;20460;-74
2022/09/18 01:56:49;;;;;;;3.30;2.23;;;;;;;;;;5070820;28;20489;-75
2022/09/18 01:59:25;;;;;;;4.33;2.57;;;;;;;;;;5070687;28;20432;-74
2022/09/18 02:02:02;;;;;;;6.00;2.10;;;;;;;;;;5069996;28;20482;-75
2022/09/18 02:04:31;;;;;;;3.57;2.17;;;;;;;;;;5090974;28;20463;-75
2022/09/18 02:07:30;;;;;;;3.03;1.80;;;;;;;;;;5076053;28;20435;-75
2022/09/18 02:09:58;;;;;;;1.70;1.60;;;;;;;;;;5024638;28;20802;-75
2022/09/18 02:12:27;;;;;;;2.23;2.03;;;;;;;;;;5050259;28;20477;-75
2022/09/18 02:14:59;;;;;;;8.67;2.93;;;;;;;;;;5052222;28;20463;-75
2022/09/18 02:17:36;;;;;;;3.87;2.03;;;;;;;;;;5076368;28;20410;-75
2022/09/18 02:20:09;;;;;;;6.50;2.27;;;;;;;;;;5066943;28;20479;-75
2022/09/18 02:22:37;;;;;;;6.17;2.60;;;;;;;;;;5072291;28;20486;-75
2022/09/18 02:25:05;;;;;;;2.77;1.90;;;;;;;;;;5073681;28;20436;-75
2022/09/18 02:27:32;;;;;;;5.40;2.03;;;;;;;;;;5090461;28;20953;-74
2022/09/18 02:30:00;;;;;;;3.37;2.10;;;;;;;;;;5054842;28;21077;-74
2022/09/18 02:32:27;;;;;;;4.23;1.87;;;;;;;;;;5089816;28;20491;-74
2022/09/18 02:34:53;;;;;;;8.87;2.60;;;;;;;;;;5066307;28;20996;-74
2022/09/18 02:37:39;;;;;;;5.83;2.20;;;;;;;;;;5061934;28;20516;-75
2022/09/18 02:40:06;;;;;;;5.47;2.93;;;;;;;;;;5055360;28;20445;-74
2022/09/18 02:42:39;;;;;;;2.73;2.43;;;;;;;;;;5081139;28;20447;-74
2022/09/18 02:45:10;;;;;;;7.57;2.30;;;;;;;;;;5080427;28;20527;-75
2022/09/18 02:47:46;;;;;;;6.50;2.50;;;;;;;;;;5052854;28;20449;-74
2022/09/18 02:50:27;;;;;;;4.80;2.50;;;;;;;;;;5073596;28;20447;-74
2022/09/18 02:53:11;;;;;;;2.70;2.00;;;;;;;;;;5063094;28;20464;-74
2022/09/18 02:55:54;;;;;;;2.13;1.90;;;;;;;;;;5069879;28;20551;-74
2022/09/18 02:58:28;;;;;;;7.37;2.73;;;;;;;;;;5075348;28;20429;-74
2022/09/18 03:00:56;;;;;;;5.27;2.40;;;;;;;;;;5069861;28;20480;-74
2022/09/18 03:03:28;;;;;;;3.80;2.73;;;;;;;;;;5050242;28;20497;-73
2022/09/18 03:05:59;;;;;;;4.57;2.60;;;;;;;;;;5057209;28;20428;-73
2022/09/18 03:08:26;;;;;;;3.90;2.50;;;;;;;;;;5086125;28;20463;-73
2022/09/18 03:10:53;;;;;;;7.10;2.47;;;;;;;;;;5052789;28;20462;-73
2022/09/18 03:13:20;;;;;;;6.63;3.00;;;;;;;;;;5070406;28;20531;-74
2022/09/18 03:15:46;;;;;;;2.87;2.03;;;;;;;;;;5073227;28;20975;-74
2022/09/18 03:18:13;;;;;;;6.50;2.20;;;;;;;;;;5088740;28;20450;-74
2022/09/18 03:20:41;;;;;;;4.73;2.40;;;;;;;;;;5076493;28;20432;-74
2022/09/18 03:23:09;;;;;;;2.87;2.20;;;;;;;;;;5093382;28;20880;-74
2022/09/18 03:25:35;;;;;;;6.03;2.90;;;;;;;;;;5093353;28;20439;-74
2022/09/18 03:28:03;;;;;;;5.30;2.67;;;;;;;;;;5093380;28;20439;-73
2022/09/18 03:30:35;;;;;;;6.20;2.87;;;;;;;;;;5082987;28;20448;-73
2022/09/18 03:33:02;;;;;;;4.57;2.83;;;;;;;;;;5072873;28;20513;-73
2022/09/18 03:35:31;;;;;;;2.93;1.80;;;;;;;;;;5073113;28;20456;-73
2022/09/18 03:37:57;;;;;;;2.30;1.90;;;;;;;;;;5072810;28;20440;-73
2022/09/18 03:40:28;;;;;;;2.40;2.20;;;;;;;;;;5073021;28;20472;-73
2022/09/18 03:42:55;;;;;;;2.73;2.00;;;;;;;;;;5074037;28;20451;-74
2022/09/18 03:45:23;;;;;;;5.23;2.90;;;;;;;;;;5084596;28;20935;-74
2022/09/18 03:47:50;;;;;;;3.73;2.27;;;;;;;;;;5074043;28;20829;-74
2022/09/18 03:50:18;;;;;;;1.90;1.60;;;;;;;;;;5072702;28;20443;-74
2022/09/18 03:52:47;;;;;;;4.93;2.33;;;;;;;;;;5091540;28;20493;-75
2022/09/18 03:55:47;;;;;;;3.90;2.07;;;;;;;;;;5088645;28;20460;-74
2022/09/18 03:58:19;;;;;;;3.33;1.90;;;;;;;;;;5081834;28;20420;-74
2022/09/18 04:01:05;;;;;;;3.30;2.30;;;;;;;;;;5061312;28;20849;-74
2022/09/18 04:03:50;;;;;;;3.13;2.80;;;;;;;;;;5084063;28;20502;-75
2022/09/18 04:06:35;;;;;;;6.57;2.07;;;;;;;;;;5073654;28;20439;-75
2022/09/18 04:09:27;;;;;;;3.43;3.13;;;;;;;;;;5082833;28;20444;-74
2022/09/18 04:11:54;;;;;;;4.20;3.20;;;;;;;;;;5074261;28;20555;-75
2022/09/18 04:14:21;;;;;;;3.50;2.30;;;;;;;;;;5062108;28;20806;-75
2022/09/18 04:16:54;;;;;;;5.83;2.40;;;;;;;;;;5069864;28;21028;-75
2022/09/18 04:19:21;;;;;;;3.50;2.90;;;;;;;;;;5072087;28;20451;-74
2022/09/18 04:21:48;;;;;;;5.40;2.63;;;;;;;;;;5072041;28;20552;-75
2022/09/18 04:24:15;;;;;;;5.90;2.53;;;;;;;;;;5071859;28;20458;-75
2022/09/18 04:26:43;;;;;;;2.70;2.10;;;;;;;;;;5089815;28;20943;-75
2022/09/18 04:29:09;;;;;;;4.73;2.70;;;;;;;;;;5075432;28;20435;-75
2022/09/18 04:34:33;;;;;;;4.70;3.23;;;;;;;;;;4995049;28;20443;-90
2022/09/18 04:37:01;;;;;;;8.83;4.30;;;;;;;;;;4995567;28;20440;-91
2022/09/18 04:39:35;;;;;;;2.53;2.33;;;;;;;;;;5014839;28;20467;-92
2022/09/18 07:18:41;;;;;;;4.77;2.90;;;;;;;7.45;100.00;95962.28;6157602;23;20404;-78
2022/09/18 07:21:09;;;;;;;5.10;2.90;;;;;;;7.15;100.00;95909.63;6106816;23;20415;-78
2022/09/18 07:23:38;;;;;;;4.53;4.07;;;;;;;7.87;100.00;96013.19;6130886;23;20412;-77
2022/09/18 07:26:05;;;;;;;7.80;3.70;;;;;;;7.50;100.00;95978.69;6130358;23;20420;-78
2022/09/18 07:28:33;;;;;;;4.10;3.50;;;;;;;7.84;100.00;96016.47;6130050;23;20495;-78
2022/09/18 07:31:12;;;;;;;2.03;1.80;;;;;;;7.67;100.00;96019.94;6130036;23;20404;-76
2022/09/18 07:33:39;;;;;;;3.60;3.10;;;;;;;7.86;100.00;95994.00;6128042;23;20411;-77
2022/09/18 07:36:13;;;;;;;3.63;3.20;;;;;;;7.74;100.00;95987.88;6127823;23;20467;-76
2022/09/18 07:38:41;;;;;;;6.80;3.23;;;;;;;7.88;100.00;95994.50;6128035;23;20411;-76
2022/09/18 07:41:10;;;;;;;2.63;2.43;;;;;;;7.91;100.00;96004.38;6103761;23;20902;-77
2022/09/18 07:43:41;;;;;;;3.70;2.40;;;;;;;7.64;100.00;95979.25;6127975;23;20399;-76
2022/09/18 07:46:08;;;;;;;2.73;1.60;;;;;;;7.62;100.00;96012.22;6127832;23;20812;-76
2022/09/18 07:48:37;;;;;;;9.83;2.60;;;;;;;7.56;100.00;95972.16;6154095;23;20883;-76
2022/09/18 07:51:17;;;;;;;2.10;1.90;;;;;;;7.65;100.00;95999.22;6127876;23;20735;-76
2022/09/18 07:53:51;;;;;;;2.07;1.80;;;;;;;7.53;100.00;95993.84;6105124;23;20404;-76
2022/09/18 07:56:28;;;;;;;2.70;2.00;;;;;;;7.53;100.00;96014.09;6105361;23;20463;-76
2022/09/18 07:58:55;;;;;;;3.93;1.80;;;;;;;7.38;100.00;95996.97;6127573;23;20404;-76
2022/09/18 08:01:26;;;;;;;2.50;2.27;;;;;;;7.69;100.00;96038.81;6103411;23;20416;-76
2022/09/18 08:03:55;;;;;;;3.93;3.40;;;;;;;7.67;100.00;96023.34;6127679;23;20415;-76
2022/09/18 08:06:34;;;;;;;3.87;3.57;;;;;;;7.73;100.00;96026.56;6136796;23;20399;-76
2022/09/18 08:09:24;;;;;;;1.83;1.70;;;;;;;7.80;100.00;96028.72;6131418;23;20404;-76
2022/09/18 08:12:14;;;;;;;2.27;1.97;;;;;;;7.52;100.00;95973.09;6152416;23;20740;-76
2022/09/18 08:14:54;;;;;;;2.40;1.63;;;;;;;7.63;100.00;95992.72;6127708;23;20408;-76
2022/09/18 08:17:33;;;;;;;1.40;1.30;;;;;;;7.66;100.00;96008.66;6111182;23;20492;-76
2022/09/18 08:20:18;;;;;;;3.70;1.57;;;;;;;7.49;100.00;96008.72;6102547;23;20460;-76
2022/09/18 08:22:51;;;;;;;1.60;1.50;;;;;;;7.59;100.00;96028.63;6075543;23;20405;-76
2022/09/18 08:25:22;;;;;;;3.67;2.30;;;;;;;7.71;100.00;96026.09;6098265;23;20405;-76
2022/09/18 08:27:49;;;;;;;2.70;2.50;;;;;;;7.72;100.00;96015.28;6098188;23;20816;-76
2022/09/18 08:30:26;;;;;;;4.03;1.97;;;;;;;7.61;100.00;96047.50;6076324;23;20902;-76
2022/09/18 08:33:03;;;;;;;4.20;2.60;;;;;;;7.51;100.00;96056.50;6074933;23;20890;-76
2022/09/18 08:35:31;;;;;;;3.20;2.60;;;;;;;7.37;100.00;96029.63;6098187;23;20459;-76
2022/09/18 08:38:06;;;;;;;3.03;2.70;;;;;;;7.48;100.00;96030.84;6097894;23;20437;-76
2022/09/18 08:41:05;;;;;;;3.30;2.67;;;;;;;7.70;100.00;96043.75;6098098;23;20401;-76
2022/09/18 08:43:41;;;;;;;3.17;2.13;;;;;;;7.62;100.00;96033.28;6098200;23;20441;-76
2022/09/18 08:46:13;;;;;;;4.17;2.20;;;;;;;7.43;100.00;96007.31;6097893;23;20421;-76
2022/09/18 08:49:03;;;;;;;2.83;2.57;;;;;;;7.81;100.00;96046.81;6098101;23;20498;-76
2022/09/18 08:51:36;;;;;;;2.27;2.10;;;;;;;7.96;100.00;96038.41;6074352;23;20397;-76
2022/09/18 08:54:52;;;;;;;5.80;2.27;;;;;;;7.88;100.00;96047.13;6098026;23;20746;-77
2022/09/18 08:57:36;;;;;;;3.40;2.07;;;;;;;7.87;100.00;96036.88;6068436;23;20968;-76
2022/09/18 09:00:30;;;;;;;2.93;2.27;;;;;;;8.06;100.00;96037.28;6081943;23;20404;-76
2022/09/18 09:03:51;;;;;;;4.20;2.70;;;;;;;8.11;100.00;96031.06;6109111;23;20411;-76
2022/09/18 09:06:40;;;;;;;4.73;2.77;;;;;;;8.12;100.00;96033.38;6104632;23;20487;-75
2022/09/18 09:09:25;;;;;;;3.43;2.60;;;;;;;8.15;100.00;96032.78;6080702;23;20405;-77
2022/09/18 09:12:06;;;;;;;2.13;2.03;;;;;;;8.00;100.00;96010.34;6073933;23;20400;-77
2022/09/18 09:14:41;;;;;;;4.13;1.90;;;;;;;8.14;100.00;96033.84;6074147;23;20397;-77
2022/09/18 09:17:36;;;;;;;3.43;2.60;;;;;;;8.19;100.00;96035.53;6090971;23;20471;-77
2022/09/18 09:20:20;;;;;;;4.50;1.93;;;;;;;8.25;100.00;96035.03;6127104;23;20404;-77
2022/09/18 09:23:06;;;;;;;2.00;1.90;;;;;;;8.02;100.00;96006.66;6102845;23;20463;-77
2022/09/18 09:25:46;;;;;;;5.33;3.60;;;;;;;8.12;100.00;96030.75;6103229;23;20795;-76
2022/09/18 09:28:45;;;;;;;1.83;1.73;;;;;;;7.82;100.00;95997.59;6104789;23;20398;-76
2022/09/18 09:31:38;;;;;;;2.93;1.80;;;;;;;7.94;100.00;96019.53;6130894;23;20407;-76
2022/09/18 09:34:35;;;;;;;2.07;1.93;;;;;;;7.84;100.00;96001.44;6107600;23;20744;-76
2022/09/18 09:37:22;;;;;;;3.50;2.40;;;;;;;7.99;100.00;96015.94;6126845;23;20435;-76
2022/09/18 09:39:58;;;;;;;2.37;2.10;;;;;;;8.14;100.00;96027.78;6127121;23;20772;-75
2022/09/18 09:42:37;;;;;;;3.03;1.80;;;;;;;7.94;100.00;96000.34;6126936;23;20786;-75
2022/09/18 09:45:15;;;;;;;2.63;2.20;;;;;;;7.96;100.00;96006.06;6127085;23;20502;-75
2022/09/18 09:47:49;;;;;;;2.37;2.17;;;;;;;8.13;100.00;96013.84;6153212;23;20427;-76
2022/09/18 09:50:29;;;;;;;2.73;2.20;;;;;;;8.18;100.00;96023.47;6103041;23;20427;-76
2022/09/18 09:53:00;;;;;;;1.33;1.20;;;;;;;8.16;100.00;96017.75;6102903;23;20395;-76
2022/09/18 09:55:41;;;;;;;1.60;1.50;;;;;;;8.19;100.00;96019.72;6102891;23;20439;-75
2022/09/18 09:58:20;;;;;;;2.47;2.27;;;;;;;8.21;100.00;96012.28;6102698;23;20428;-76
2022/09/18 10:01:03;;;;;;;2.40;2.20;;;;;;;8.09;100.00;95996.38;6103022;23;20406;-76
2022/09/18 10:03:39;;;;;;;4.80;4.37;;;;;;;8.12;100.00;95996.53;6127140;23;20404;-75
2022/09/18 10:06:26;;;;;;;3.10;2.90;;;;;;;8.15;100.00;96014.34;6126821;23;20739;-76
2022/09/18 10:09:08;;;;;;;1.93;1.83;;;;;;;8.16;100.00;95999.31;6102591;23;20392;-76
2022/09/18 10:11:39;;;;;;;4.00;3.70;;;;;;;8.35;100.00;96002.31;6127039;23;20403;-76
2022/09/18 10:14:15;;;;;;;2.43;2.23;;;;;;;8.37;100.00;96009.91;6103068;23;20410;-76
2022/09/18 10:16:47;;;;;;;3.20;2.03;;;;;;;8.17;100.00;95985.06;6096604;23;20455;-76
2022/09/18 10:19:20;;;;;;;4.67;4.40;;;;;;;8.33;100.00;96008.97;6073925;23;20905;-76
2022/09/18 10:21:51;;;;;;;4.20;2.90;;;;;;;8.35;100.00;96002.31;6073655;23;20408;-76
2022/09/18 10:24:28;;;;;;;1.90;1.70;;;;;;;8.37;100.00;96013.28;6099404;23;20404;-76
2022/09/18 10:27:04;;;;;;;3.27;3.07;;;;;;;8.24;100.00;95990.56;6099536;23;20421;-76
2022/09/18 10:29:31;;;;;;;2.60;2.40;;;;;;;8.08;100.00;95961.38;6099585;23;20405;-76
2022/09/18 10:32:03;;;;;;;4.27;3.40;;;;;;;8.26;100.00;95975.22;6076567;23;20397;-75
2022/09/18 10:34:44;;;;;;;2.67;2.47;;;;;;;8.35;100.00;96001.53;6099377;23;20401;-76
2022/09/18 10:37:17;;;;;;;4.40;4.00;;;;;;;8.43;100.00;96006.00;6075960;23;20474;-76
2022/09/18 10:39:56;;;;;;;6.13;3.00;;;;;;;8.36;100.00;96005.72;6099542;23;20425;-76
2022/09/18 10:42:26;;;;;;;2.93;2.63;;;;;;;8.34;100.00;96003.41;6099307;23;20404;-76
2022/09/18 10:45:03;;;;;;;1.60;1.50;;;;;;;8.25;100.00;96010.53;6099373;23;20895;-76
2022/09/18 10:47:35;;;;;;;2.90;2.30;;;;;;;8.23;100.00;95978.50;6076061;23;20421;-76
2022/09/18 10:50:05;;;;;;;4.20;2.10;;;;;;;8.40;100.00;96009.25;6099405;23;20404;-76
2022/09/18 10:52:45;;;;;;;1.83;1.73;;;;;;;8.28;100.00;95978.31;6075952;23;20393;-76
2022/09/18 10:55:21;;;;;;;2.00;1.70;;;;;;;8.23;100.00;95962.69;6080343;23;20496;-76
2022/09/18 10:58:05;;;;;;;4.23;1.60;;;;;;;8.45;100.00;95982.75;6105612;23;20511;-75
2022/09/18 11:00:37;;;;;;;2.27;2.07;;;;;;;8.48;100.00;96001.31;6107393;23;20404;-75
2022/09/18 11:03:36;;;;;;;2.93;1.97;;;;;;;8.55;100.00;96006.06;6107130;23;20429;-75
2022/09/18 11:06:08;;;;;;;1.70;1.60;;;;;;;8.47;100.00;95999.00;6098709;23;20943;-75
2022/09/18 11:08:41;;;;;;;2.13;2.03;;;;;;;8.58;100.00;96008.06;6107169;23;20488;-75
2022/09/18 11:11:27;;;;;;;1.73;1.63;;;;;;;8.59;100.00;96006.97;6075938;23;20475;-75
2022/09/18 11:14:03;;;;;;;1.70;1.60;;;;;;;8.18;100.00;95962.91;6098890;23;20882;-75
2022/09/18 11:16:42;;;;;;;2.17;1.63;;;;;;;8.38;100.00;95985.09;6103785;23;20458;-77
2022/09/18 11:19:11;;;;;;;2.23;2.13;;;;;;;8.55;100.00;96001.56;6128385;23;20399;-77
2022/09/18 11:22:03;;;;;;;2.63;2.40;;;;;;;8.55;100.00;95995.53;6104644;23;20410;-75
2022/09/18 11:24:37;;;;;;;2.00;1.90;;;;;;;8.51;100.00;95995.38;6128167;23;20411;-76
2022/09/18 11:27:20;;;;;;;5.80;1.90;;;;;;;8.58;100.00;95985.13;6128209;23;20415;-75
2022/09/18 11:29:50;;;;;;;1.87;1.77;;;;;;;8.03;100.00;95916.06;6128672;23;20436;-75
2022/09/18 11:32:24;;;;;;;3.87;2.40;;;;;;;8.51;100.00;95991.97;6128199;23;20412;-75
2022/09/18 11:35:01;;;;;;;2.53;2.40;;;;;;;8.50;100.00;95978.03;6128478;23;20395;-75
2022/09/18 11:37:38;;;;;;;1.67;1.57;;;;;;;8.56;100.00;95997.06;6128010;23;20956;-75
2022/09/18 11:40:23;;;;;;;2.17;2.07;;;;;;;8.55;100.00;95993.66;6128092;23;20403;-76
2022/09/18 11:42:52;;;;;;;1.30;1.20;;;;;;;8.51;100.00;95973.53;6103696;23;20408;-76
2022/09/18 11:45:44;;;;;;;2.60;1.90;;;;;;;8.69;100.00;95987.38;6128156;23;20905;-75
2022/09/18 11:48:24;;;;;;;2.27;1.90;;;;;;;8.82;100.00;95983.72;6103860;23;20404;-75
2022/09/18 11:50:55;;;;;;;2.60;1.70;;;;;;;8.95;100.00;95964.22;6127993;23;20520;-76
2022/09/18 11:53:26;;;;;;;4.27;1.83;;;;;;;9.01;100.00;95954.22;6128099;23;20404;-76
2022/09/18 11:56:01;;;;;;;1.70;1.60;;;;;;;9.37;100.00;95975.44;6127953;23;20400;-76
2022/09/18 11:58:35;;;;;;;2.40;1.93;;;;;;;9.02;100.00;95939.94;6103686;23;20450;-76
2022/09/18 12:01:33;;;;;;;1.80;1.70;;;;;;;9.31;100.00;95974.09;6128065;23;20423;-76
2022/09/18 12:04:16;;;;;;;1.97;1.57;;;;;;;9.37;100.00;95972.03;6103783;23;20410;-76
2022/09/18 12:07:01;;;;;;;3.13;1.33;;;;;;;9.41;100.00;95970.25;6127866;23;20427;-76
2022/09/18 12:09:42;;;;;;;2.17;1.57;;;;;;;9.17;100.00;95955.91;6127853;23;20416;-76
2022/09/18 12:12:22;;;;;;;1.00;1.00;;;;;;;8.95;100.00;95944.94;6127860;23;20509;-76
2022/09/18 12:15:09;;;;;;;1.40;1.30;;;;;;;9.13;100.00;95973.50;6103501;23;20435;-76
2022/09/18 12:17:45;;;;;;;1.53;1.27;;;;;;;9.07;100.00;95968.72;6086692;23;20953;-76
2022/09/18 12:20:40;;;;;;;1.90;1.47;;;;;;;9.09;100.00;95962.06;6074667;23;20396;-76
2022/09/18 12:23:15;;;;;;;1.30;1.20;;;;;;;9.12;100.00;95971.19;6098198;23;20432;-76
2022/09/18 12:26:01;;;;;;;1.30;1.20;;;;;;;9.11;100.00;95969.66;6098464;23;20503;-76
2022/09/18 12:28:57;;;;;;;1.10;1.00;;;;;;;9.01;100.00;95965.53;6078104;23;20408;-77
2022/09/18 12:31:55;;;;;;;1.67;1.27;;;;;;;8.96;100.00;95949.94;6074687;23;20400;-76
2022/09/18 12:34:31;;;;;;;1.60;1.50;;;;;;;9.08;100.00;95962.34;6074414;23;20412;-77
2022/09/18 12:37:10;;;;;;;3.37;1.30;;;;;;;8.99;100.00;95967.72;6098230;23;20428;-76
2022/09/18 12:39:42;;;;;;;1.40;1.30;;;;;;;9.07;100.00;95958.19;6074577;23;20802;-77
2022/09/18 12:42:51;;;;;;;1.97;1.13;;;;;;;9.02;100.00;95959.16;6124404;23;20373;-76
2022/09/18 12:45:48;;;;;;;1.30;1.20;;;;;;;9.10;100.00;95947.00;6088449;23;20409;-76
2022/09/18 12:48:43;;;;;;;0.87;0.87;;;;;;;9.17;100.00;95953.28;6127070;23;20374;-76
2022/09/18 12:51:41;;;;;;;1.20;1.10;;;;;;;9.17;100.00;95953.28;6099827;23;20397;-76
2022/09/18 12:54:10;;;;;;;0.80;0.80;;;;;;;9.08;100.00;95955.25;6105528;23;20420;-77
2022/09/18 12:56:54;;;;;;;1.17;1.07;;;;;;;9.15;100.00;95952.06;6084215;23;20425;-77
2022/09/18 12:59:51;;;;;;;2.30;1.27;;;;;;;9.13;100.00;95946.34;6107994;23;20384;-75
2022/09/18 13:02:40;;;;;;;2.10;1.50;;;;;;;9.17;100.00;95950.63;6107403;23;20393;-76
2022/09/18 13:05:36;;;;;;;2.93;1.90;;;;;;;9.07;100.00;95945.00;6132453;23;20408;-75
2022/09/18 13:08:10;;;;;;;1.90;1.63;;;;;;;8.81;100.00;95935.50;6077758;23;20424;-75
2022/09/18 13:10:42;;;;;;;6.33;4.30;;;;;;;8.96;100.00;95938.63;6074089;23;20400;-76
2022/09/18 13:13:21;;;;;;;3.20;2.40;;;;;;;8.87;100.00;95939.44;6097834;23;20400;-76
2022/09/18 13:16:03;;;;;;;1.43;1.30;;;;;;;8.58;100.00;95907.94;6074205;23;20393;-76
2022/09/18 13:18:58;;;;;;;4.43;3.03;;;;;;;8.80;100.00;95936.56;6125037;23;20444;-76
2022/09/18 13:21:29;;;;;;;2.63;1.73;;;;;;;8.53;100.00;95902.84;6127075;23;20408;-75
2022/09/18 13:23:58;;;;;;;2.57;2.37;;;;;;;8.81;100.00;95932.06;6102967;23;20415;-76
2022/09/18 13:26:29;;;;;;;1.60;1.50;;;;;;;8.89;100.00;95942.53;6102760;23;20423;-76
2022/09/18 13:28:56;;;;;;;1.40;1.30;;;;;;;8.85;100.00;95933.75;6153246;23;20881;-76
2022/09/18 13:31:29;;;;;;;2.60;1.77;;;;;;;8.85;100.00;95915.28;6103337;23;20398;-75
2022/09/18 13:34:04;;;;;;;4.60;1.20;;;;;;;8.80;100.00;95909.44;6127417;23;20428;-76
2022/09/18 13:36:37;;;;;;;1.30;1.20;;;;;;;8.96;100.00;95925.44;6153186;23;20422;-75
2022/09/18 13:39:14;;;;;;;1.60;1.50;;;;;;;8.84;100.00;95916.38;6127353;23;20419;-76
2022/09/18 13:41:48;;;;;;;2.60;1.60;;;;;;;8.89;100.00;95912.75;6153246;23;20426;-76
2022/09/18 13:44:22;;;;;;;1.20;1.10;;;;;;;8.71;100.00;95904.25;6127452;23;20398;-76
2022/09/18 13:46:52;;;;;;;1.63;1.23;;;;;;;8.77;100.00;95902.94;6127249;23;20477;-75
2022/09/18 13:49:29;;;;;;;1.30;1.20;;;;;;;8.51;100.00;95873.41;6153251;23;20383;-76
2022/09/18 13:52:33;;;;;;;2.07;1.63;;;;;;;8.69;100.00;95903.03;6127292;23;20463;-75
2022/09/18 13:55:12;;;;;;;2.80;1.40;;;;;;;8.72;100.00;95895.25;6127128;23;20474;-75
2022/09/18 13:57:40;;;;;;;3.60;3.30;;;;;;;8.71;100.00;95904.25;6102944;23;20463;-75
2022/09/18 14:00:19;;;;;;;3.10;1.87;;;;;;;8.71;100.00;95898.97;6128728;23;20414;-75
2022/09/18 14:03:10;;;;;;;4.93;3.80;;;;;;;8.53;100.00;95868.59;6129063;23;20419;-77
2022/09/18 14:05:38;;;;;;;1.70;1.60;;;;;;;8.71;100.00;95896.34;6104507;23;20893;-75
2022/09/18 14:08:21;;;;;;;2.20;2.00;;;;;;;8.63;100.00;95886.66;6104473;23;20427;-75
2022/09/18 14:10:47;;;;;;;2.67;2.47;;;;;;;8.79;100.00;95889.44;6155369;23;20439;-76
2022/09/18 14:13:38;;;;;;;2.67;1.50;;;;;;;8.76;100.00;95888.22;6155108;23;20376;-76
2022/09/18 14:16:24;;;;;;;2.40;2.20;;;;;;;8.74;100.00;95890.41;6128981;23;20407;-75
2022/09/18 14:19:01;;;;;;;1.97;1.87;;;;;;;8.69;100.00;95864.28;6075522;23;20760;-75
2022/09/18 14:21:38;;;;;;;2.30;2.10;;;;;;;8.87;100.00;95881.47;6099737;23;20380;-75
2022/09/18 14:24:17;;;;;;;1.50;1.40;;;;;;;8.78;100.00;95883.41;6099472;23;20427;-76
2022/09/18 14:26:44;;;;;;;1.60;1.50;;;;;;;8.79;100.00;95873.63;6099315;23;20459;-76
2022/09/18 14:29:13;;;;;;;1.40;1.30;;;;;;;8.78;100.00;95874.72;6075574;23;20805;-75
2022/09/18 14:31:43;;;;;;;2.60;2.30;;;;;;;8.83;100.00;95879.81;6125450;23;20394;-75
2022/09/18 14:34:31;;;;;;;2.40;1.53;;;;;;;8.81;100.00;95877.50;6075575;23;20459;-76
2022/09/18 14:37:01;;;;;;;3.53;2.40;;;;;;;8.84;100.00;95878.72;6099237;23;20997;-76
2022/09/18 14:39:34;;;;;;;3.43;3.13;;;;;;;8.79;100.00;95865.72;6125221;23;20531;-76
2022/09/18 14:42:40;;;;;;;3.70;2.47;;;;;;;8.80;100.00;95870.66;6125465;23;20464;-76
2022/09/18 14:45:09;;;;;;;2.30;2.20;;;;;;;8.78;100.00;95875.50;6121657;23;20452;-76
2022/09/18 14:47:37;;;;;;;5.87;3.13;;;;;;;8.72;100.00;95865.50;6075439;23;20420;-76
2022/09/18 14:50:30;;;;;;;4.87;2.20;;;;;;;8.77;100.00;95860.78;6125296;23;20420;-76
2022/09/18 14:52:59;;;;;;;5.30;2.30;;;;;;;8.52;100.00;95838.06;6099709;23;20452;-76
2022/09/18 14:55:39;;;;;;;1.83;1.73;;;;;;;8.77;100.00;95871.31;6099148;23;20443;-76
2022/09/18 14:58:11;;;;;;;4.73;3.10;;;;;;;8.58;100.00;95840.19;6127047;23;20420;-75
2022/09/18 15:00:38;;;;;;;3.70;2.43;;;;;;;8.81;100.00;95864.31;6105035;23;20397;-76
2022/09/18 15:03:19;;;;;;;3.93;2.30;;;;;;;8.58;100.00;95834.16;6105823;23;20400;-76
2022/09/18 15:05:50;;;;;;;3.87;1.70;;;;;;;8.79;100.00;95855.19;6130468;23;20373;-77
2022/09/18 15:08:20;;;;;;;1.93;1.70;;;;;;;8.82;100.00;95868.50;6103728;23;20429;-75
2022/09/18 15:10:52;;;;;;;2.13;1.87;;;;;;;8.74;100.00;95861.44;6104472;23;20840;-75
2022/09/18 15:13:20;;;;;;;2.43;1.70;;;;;;;8.75;100.00;95865.59;6125048;23;20396;-76
2022/09/18 15:16:00;;;;;;;3.13;2.37;;;;;;;8.72;100.00;95853.09;6098736;23;20459;-76
2022/09/18 15:18:28;;;;;;;3.83;2.90;;;;;;;8.62;100.00;95850.84;6074964;23;20444;-76
2022/09/18 15:20:58;;;;;;;3.97;3.57;;;;;;;8.56;100.00;95831.84;6124933;23;20399;-75
2022/09/18 15:23:31;;;;;;;2.67;1.97;;;;;;;8.52;100.00;95833.56;6098895;23;20507;-75
2022/09/18 15:26:01;;;;;;;2.50;2.30;;;;;;;8.29;100.00;95803.41;6124818;23;20902;-75
2022/09/18 15:28:32;;;;;;;2.33;2.10;;;;;;;8.46;100.00;95834.88;6098803;23;20401;-75
2022/09/18 15:31:07;;;;;;;2.67;2.20;;;;;;;8.48;100.00;95837.19;6098778;23;20411;-75
2022/09/18 15:33:36;;;;;;;7.33;2.87;;;;;;;8.42;100.00;95834.00;6098926;23;20428;-75
2022/09/18 15:36:04;;;;;;;2.13;1.93;;;;;;;8.30;100.00;95816.25;6074857;23;20794;-76
2022/09/18 15:38:51;;;;;;;3.80;1.80;;;;;;;8.57;100.00;95851.84;6124647;23;20452;-76
2022/09/18 15:41:28;;;;;;;5.20;2.33;;;;;;;8.42;100.00;95827.97;6098845;23;20370;-75
2022/09/18 15:43:55;;;;;;;3.17;2.10;;;;;;;8.30;100.00;95805.72;6098968;23;20890;-76
2022/09/18 15:46:30;;;;;;;2.80;2.33;;;;;;;8.53;100.00;95848.28;6074802;23;20503;-76
2022/09/18 15:48:59;;;;;;;3.47;2.23;;;;;;;8.52;100.00;95841.47;6098918;23;20592;-76
2022/09/18 15:51:34;;;;;;;3.53;2.10;;;;;;;8.36;100.00;95830.00;6098386;23;20401;-76
2022/09/18 15:54:08;;;;;;;4.03;2.20;;;;;;;8.48;100.00;95847.72;6124536;23;20388;-75